sensor_id;sensor_type;location;lat;lon;timestamp;P1;durP1;ratioP1;P2;durP2;ratioP2
31282;SDS011;17915;52.540;13.604;2022-10-16T00:00:30;6.50;;;4.78;;
31282;SDS011;17915;52.540;13.604;2022-10-16T00:02:55;4.65;;;4.35;;
31282;SDS011;17915;52.540;13.604;2022-10-16T00:05:21;4.53;;;4.13;;
31282;SDS011;17915;52.540;13.604;2022-10-16T00:07:46;4.40;;;4.00;;
31282;SDS011;17915;52.540;13.604;2022-10-16T00:10:12;4.77;;;4.20;;
31282;SDS011;17915;52.540;13.604;2022-10-16T00:12:37;3.70;;;3.50;;
31282;SDS011;17915;52.540;13.604;2022-10-16T00:15:03;3.80;;;3.50;;
31282;SDS011;17915;52.540;13.604;2022-10-16T00:17:30;4.13;;;3.80;;
31282;SDS011;17915;52.540;13.604;2022-10-16T00:22:21;3.58;;;3.38;;
31282;SDS011;17915;52.540;13.604;2022-10-16T00:24:47;3.23;;;3.03;;
31282;SDS011;17915;52.540;13.604;2022-10-16T00:27:12;3.20;;;3.00;;
31282;SDS011;17915;52.540;13.604;2022-10-16T00:29:37;3.40;;;3.10;;
31282;SDS011;17915;52.540;13.604;2022-10-16T00:32:03;3.57;;;3.27;;
31282;SDS011;17915;52.540;13.604;2022-10-16T00:34:28;4.73;;;3.00;;
31282;SDS011;17915;52.540;13.604;2022-10-16T00:36:54;2.57;;;2.47;;
31282;SDS011;17915;52.540;13.604;2022-10-16T00:39:19;2.50;;;2.40;;
31282;SDS011;17915;52.540;13.604;2022-10-16T00:41:45;6.00;;;4.10;;
31282;SDS011;17915;52.540;13.604;2022-10-16T00:47:34;3.17;;;3.05;;
31282;SDS011;17915;52.540;13.604;2022-10-16T00:52:54;2.83;;;2.42;;
31282;SDS011;17915;52.540;13.604;2022-10-16T00:55:20;3.22;;;3.03;;
31282;SDS011;17915;52.540;13.604;2022-10-16T00:57:46;3.27;;;2.97;;
31282;SDS011;17915;52.540;13.604;2022-10-16T01:00:13;2.63;;;2.42;;
31282;SDS011;17915;52.540;13.604;2022-10-16T01:02:41;2.85;;;2.53;;
31282;SDS011;17915;52.540;13.604;2022-10-16T01:05:06;2.77;;;2.67;;
31282;SDS011;17915;52.540;13.604;2022-10-16T01:07:36;3.55;;;3.25;;
31282;SDS011;17915;52.540;13.604;2022-10-16T01:10:07;5.20;;;2.70;;
31282;SDS011;17915;52.540;13.604;2022-10-16T01:12:51;2.55;;;2.35;;
31282;SDS011;17915;52.540;13.604;2022-10-16T01:15:31;2.65;;;2.50;;
31282;SDS011;17915;52.540;13.604;2022-10-16T01:20:45;3.05;;;2.83;;
31282;SDS011;17915;52.540;13.604;2022-10-16T01:28:42;2.97;;;2.78;;
31282;SDS011;17915;52.540;13.604;2022-10-16T01:31:14;2.90;;;2.70;;
31282;SDS011;17915;52.540;13.604;2022-10-16T01:33:48;5.65;;;2.45;;
31282;SDS011;17915;52.540;13.604;2022-10-16T01:36:21;3.35;;;3.05;;
31282;SDS011;17915;52.540;13.604;2022-10-16T01:38:50;3.60;;;3.30;;
31282;SDS011;17915;52.540;13.604;2022-10-16T01:41:21;2.97;;;2.80;;
31282;SDS011;17915;52.540;13.604;2022-10-16T01:43:53;2.95;;;2.78;;
31282;SDS011;17915;52.540;13.604;2022-10-16T01:46:22;3.75;;;3.40;;
31282;SDS011;17915;52.540;13.604;2022-10-16T01:48:48;6.30;;;4.05;;
31282;SDS011;17915;52.540;13.604;2022-10-16T01:53:40;2.65;;;2.55;;
31282;SDS011;17915;52.540;13.604;2022-10-16T01:56:09;3.80;;;3.40;;
31282;SDS011;17915;52.540;13.604;2022-10-16T01:58:38;3.28;;;2.45;;
31282;SDS011;17915;52.540;13.604;2022-10-16T02:01:07;3.35;;;2.53;;
31282;SDS011;17915;52.540;13.604;2022-10-16T02:03:34;3.25;;;2.45;;
31282;SDS011;17915;52.540;13.604;2022-10-16T02:06:00;2.90;;;2.55;;
31282;SDS011;17915;52.540;13.604;2022-10-16T02:08:26;2.87;;;2.57;;
31282;SDS011;17915;52.540;13.604;2022-10-16T02:10:54;3.55;;;2.83;;
31282;SDS011;17915;52.540;13.604;2022-10-16T02:13:41;2.60;;;2.50;;
31282;SDS011;17915;52.540;13.604;2022-10-16T02:16:10;2.22;;;2.08;;
31282;SDS011;17915;52.540;13.604;2022-10-16T02:18:37;2.20;;;2.10;;
31282;SDS011;17915;52.540;13.604;2022-10-16T02:23:57;3.35;;;3.00;;
31282;SDS011;17915;52.540;13.604;2022-10-16T02:26:26;2.42;;;2.33;;
31282;SDS011;17915;52.540;13.604;2022-10-16T02:28:56;12.00;;;3.63;;
31282;SDS011;17915;52.540;13.604;2022-10-16T02:31:26;2.28;;;2.17;;
31282;SDS011;17915;52.540;13.604;2022-10-16T02:33:53;2.78;;;2.58;;
31282;SDS011;17915;52.540;13.604;2022-10-16T02:36:20;2.10;;;2.00;;
31282;SDS011;17915;52.540;13.604;2022-10-16T02:38:46;2.60;;;2.40;;
31282;SDS011;17915;52.540;13.604;2022-10-16T02:41:11;2.30;;;2.10;;
31282;SDS011;17915;52.540;13.604;2022-10-16T02:43:37;2.60;;;2.40;;
31282;SDS011;17915;52.540;13.604;2022-10-16T02:46:02;4.30;;;2.43;;
31282;SDS011;17915;52.540;13.604;2022-10-16T02:48:28;3.30;;;3.00;;
31282;SDS011;17915;52.540;13.604;2022-10-16T02:50:53;3.00;;;2.17;;
31282;SDS011;17915;52.540;13.604;2022-10-16T02:53:19;2.30;;;2.20;;
31282;SDS011;17915;52.540;13.604;2022-10-16T02:55:44;3.63;;;2.03;;
31282;SDS011;17915;52.540;13.604;2022-10-16T02:58:09;2.40;;;2.20;;
31282;SDS011;17915;52.540;13.604;2022-10-16T03:00:35;6.97;;;2.77;;
31282;SDS011;17915;52.540;13.604;2022-10-16T03:03:00;2.40;;;2.30;;
31282;SDS011;17915;52.540;13.604;2022-10-16T03:05:25;2.10;;;2.00;;
31282;SDS011;17915;52.540;13.604;2022-10-16T03:07:51;2.53;;;2.43;;
31282;SDS011;17915;52.540;13.604;2022-10-16T03:10:17;4.15;;;2.63;;
31282;SDS011;17915;52.540;13.604;2022-10-16T03:12:43;2.50;;;2.30;;
31282;SDS011;17915;52.540;13.604;2022-10-16T03:15:08;2.23;;;2.13;;
31282;SDS011;17915;52.540;13.604;2022-10-16T03:17:34;8.57;;;2.20;;
31282;SDS011;17915;52.540;13.604;2022-10-16T03:19:59;2.17;;;2.07;;
31282;SDS011;17915;52.540;13.604;2022-10-16T03:22:25;2.40;;;2.17;;
31282;SDS011;17915;52.540;13.604;2022-10-16T03:24:50;2.87;;;2.67;;
31282;SDS011;17915;52.540;13.604;2022-10-16T03:27:16;2.87;;;2.67;;
31282;SDS011;17915;52.540;13.604;2022-10-16T03:29:41;2.60;;;2.40;;
31282;SDS011;17915;52.540;13.604;2022-10-16T03:32:06;4.37;;;2.50;;
31282;SDS011;17915;52.540;13.604;2022-10-16T03:34:32;2.77;;;2.67;;
31282;SDS011;17915;52.540;13.604;2022-10-16T03:36:57;5.33;;;2.27;;
31282;SDS011;17915;52.540;13.604;2022-10-16T03:39:23;3.37;;;3.17;;
31282;SDS011;17915;52.540;13.604;2022-10-16T03:41:48;4.10;;;3.80;;
31282;SDS011;17915;52.540;13.604;2022-10-16T03:44:14;3.23;;;3.03;;
31282;SDS011;17915;52.540;13.604;2022-10-16T03:46:39;3.07;;;2.87;;
31282;SDS011;17915;52.540;13.604;2022-10-16T03:49:05;2.60;;;2.50;;
31282;SDS011;17915;52.540;13.604;2022-10-16T03:51:30;2.63;;;2.53;;
31282;SDS011;17915;52.540;13.604;2022-10-16T03:53:56;7.60;;;3.00;;
31282;SDS011;17915;52.540;13.604;2022-10-16T03:56:21;2.20;;;1.97;;
31282;SDS011;17915;52.540;13.604;2022-10-16T03:58:46;2.77;;;2.57;;
31282;SDS011;17915;52.540;13.604;2022-10-16T04:01:12;2.47;;;2.20;;
31282;SDS011;17915;52.540;13.604;2022-10-16T04:03:37;4.03;;;2.63;;
31282;SDS011;17915;52.540;13.604;2022-10-16T04:06:02;3.43;;;2.47;;
31282;SDS011;17915;52.540;13.604;2022-10-16T04:08:28;2.47;;;2.27;;
31282;SDS011;17915;52.540;13.604;2022-10-16T04:10:53;2.30;;;2.17;;
31282;SDS011;17915;52.540;13.604;2022-10-16T04:13:19;3.07;;;2.70;;
31282;SDS011;17915;52.540;13.604;2022-10-16T04:15:44;2.97;;;2.77;;
31282;SDS011;17915;52.540;13.604;2022-10-16T04:18:10;4.50;;;2.42;;
31282;SDS011;17915;52.540;13.604;2022-10-16T04:20:35;2.67;;;2.50;;
31282;SDS011;17915;52.540;13.604;2022-10-16T04:23:01;2.87;;;2.53;;
31282;SDS011;17915;52.540;13.604;2022-10-16T04:25:26;3.47;;;3.20;;
31282;SDS011;17915;52.540;13.604;2022-10-16T04:27:55;2.70;;;2.60;;
31282;SDS011;17915;52.540;13.604;2022-10-16T04:30:20;6.80;;;2.42;;
31282;SDS011;17915;52.540;13.604;2022-10-16T04:32:50;3.28;;;2.97;;
31282;SDS011;17915;52.540;13.604;2022-10-16T04:35:20;3.10;;;2.83;;
31282;SDS011;17915;52.540;13.604;2022-10-16T04:37:45;2.85;;;2.30;;
31282;SDS011;17915;52.540;13.604;2022-10-16T04:40:11;3.37;;;3.07;;
31282;SDS011;17915;52.540;13.604;2022-10-16T04:42:37;4.03;;;2.75;;
31282;SDS011;17915;52.540;13.604;2022-10-16T04:45:03;2.70;;;2.50;;
31282;SDS011;17915;52.540;13.604;2022-10-16T04:47:29;2.33;;;2.22;;
31282;SDS011;17915;52.540;13.604;2022-10-16T04:49:55;4.03;;;2.73;;
31282;SDS011;17915;52.540;13.604;2022-10-16T04:52:21;3.08;;;2.88;;
31282;SDS011;17915;52.540;13.604;2022-10-16T04:54:49;2.30;;;2.20;;
31282;SDS011;17915;52.540;13.604;2022-10-16T04:57:15;6.18;;;2.40;;
31282;SDS011;17915;52.540;13.604;2022-10-16T04:59:40;2.93;;;2.70;;
31282;SDS011;17915;52.540;13.604;2022-10-16T05:02:06;2.97;;;2.77;;
31282;SDS011;17915;52.540;13.604;2022-10-16T05:04:31;4.10;;;2.33;;
31282;SDS011;17915;52.540;13.604;2022-10-16T05:06:56;5.00;;;2.87;;
31282;SDS011;17915;52.540;13.604;2022-10-16T05:09:22;2.90;;;2.57;;
31282;SDS011;17915;52.540;13.604;2022-10-16T05:11:47;3.17;;;2.97;;
31282;SDS011;17915;52.540;13.604;2022-10-16T05:14:12;3.17;;;3.00;;
31282;SDS011;17915;52.540;13.604;2022-10-16T05:16:38;2.80;;;2.70;;
31282;SDS011;17915;52.540;13.604;2022-10-16T05:19:03;2.53;;;2.13;;
31282;SDS011;17915;52.540;13.604;2022-10-16T05:21:29;3.53;;;2.50;;
31282;SDS011;17915;52.540;13.604;2022-10-16T05:23:54;2.63;;;2.53;;
31282;SDS011;17915;52.540;13.604;2022-10-16T05:26:20;2.03;;;1.93;;
31282;SDS011;17915;52.540;13.604;2022-10-16T05:28:45;4.53;;;2.50;;
31282;SDS011;17915;52.540;13.604;2022-10-16T05:31:12;3.65;;;2.80;;
31282;SDS011;17915;52.540;13.604;2022-10-16T05:33:37;3.83;;;2.73;;
31282;SDS011;17915;52.540;13.604;2022-10-16T05:36:03;2.60;;;2.40;;
31282;SDS011;17915;52.540;13.604;2022-10-16T05:38:30;4.22;;;3.83;;
31282;SDS011;17915;52.540;13.604;2022-10-16T05:40:55;2.70;;;2.57;;
31282;SDS011;17915;52.540;13.604;2022-10-16T05:43:21;2.83;;;2.63;;
31282;SDS011;17915;52.540;13.604;2022-10-16T05:45:57;2.58;;;2.47;;
31282;SDS011;17915;52.540;13.604;2022-10-16T05:48:24;2.70;;;2.50;;
31282;SDS011;17915;52.540;13.604;2022-10-16T05:51:03;5.13;;;2.40;;
31282;SDS011;17915;52.540;13.604;2022-10-16T05:53:31;3.30;;;2.45;;
31282;SDS011;17915;52.540;13.604;2022-10-16T05:55:57;3.80;;;3.10;;
31282;SDS011;17915;52.540;13.604;2022-10-16T05:58:23;3.70;;;3.28;;
31282;SDS011;17915;52.540;13.604;2022-10-16T06:00:59;3.88;;;3.28;;
31282;SDS011;17915;52.540;13.604;2022-10-16T06:03:26;3.38;;;2.72;;
31282;SDS011;17915;52.540;13.604;2022-10-16T06:05:52;2.57;;;2.47;;
31282;SDS011;17915;52.540;13.604;2022-10-16T06:08:18;4.70;;;2.13;;
31282;SDS011;17915;52.540;13.604;2022-10-16T06:10:44;3.97;;;2.63;;
31282;SDS011;17915;52.540;13.604;2022-10-16T06:13:10;2.67;;;2.57;;
31282;SDS011;17915;52.540;13.604;2022-10-16T06:15:37;4.68;;;2.70;;
31282;SDS011;17915;52.540;13.604;2022-10-16T06:18:04;3.08;;;2.88;;
31282;SDS011;17915;52.540;13.604;2022-10-16T06:20:29;3.47;;;3.10;;
31282;SDS011;17915;52.540;13.604;2022-10-16T06:22:55;2.77;;;2.57;;
31282;SDS011;17915;52.540;13.604;2022-10-16T06:25:20;3.07;;;2.97;;
31282;SDS011;17915;52.540;13.604;2022-10-16T06:27:45;2.53;;;2.43;;
31282;SDS011;17915;52.540;13.604;2022-10-16T06:30:11;2.67;;;2.37;;
31282;SDS011;17915;52.540;13.604;2022-10-16T06:32:36;2.40;;;1.80;;
31282;SDS011;17915;52.540;13.604;2022-10-16T06:35:01;2.13;;;2.03;;
31282;SDS011;17915;52.540;13.604;2022-10-16T06:37:27;2.60;;;2.40;;
31282;SDS011;17915;52.540;13.604;2022-10-16T06:39:52;4.33;;;1.90;;
31282;SDS011;17915;52.540;13.604;2022-10-16T06:42:18;2.40;;;2.20;;
31282;SDS011;17915;52.540;13.604;2022-10-16T06:44:43;2.57;;;2.27;;
31282;SDS011;17915;52.540;13.604;2022-10-16T06:47:09;2.20;;;2.10;;
31282;SDS011;17915;52.540;13.604;2022-10-16T06:49:35;3.13;;;2.37;;
31282;SDS011;17915;52.540;13.604;2022-10-16T06:52:00;2.90;;;2.70;;
31282;SDS011;17915;52.540;13.604;2022-10-16T06:54:26;7.18;;;3.03;;
31282;SDS011;17915;52.540;13.604;2022-10-16T06:56:52;5.47;;;2.93;;
31282;SDS011;17915;52.540;13.604;2022-10-16T06:59:19;2.45;;;2.20;;
31282;SDS011;17915;52.540;13.604;2022-10-16T07:01:45;2.15;;;2.05;;
31282;SDS011;17915;52.540;13.604;2022-10-16T07:04:10;3.97;;;2.40;;
31282;SDS011;17915;52.540;13.604;2022-10-16T07:06:36;2.00;;;1.73;;
31282;SDS011;17915;52.540;13.604;2022-10-16T07:09:02;2.00;;;1.90;;
31282;SDS011;17915;52.540;13.604;2022-10-16T07:11:29;3.15;;;2.95;;
31282;SDS011;17915;52.540;13.604;2022-10-16T07:13:54;3.37;;;2.53;;
31282;SDS011;17915;52.540;13.604;2022-10-16T07:16:21;2.40;;;2.30;;
31282;SDS011;17915;52.540;13.604;2022-10-16T07:18:50;2.20;;;2.10;;
31282;SDS011;17915;52.540;13.604;2022-10-16T07:21:20;2.70;;;2.50;;
31282;SDS011;17915;52.540;13.604;2022-10-16T07:23:50;3.20;;;2.58;;
31282;SDS011;17915;52.540;13.604;2022-10-16T07:26:26;4.32;;;2.17;;
31282;SDS011;17915;52.540;13.604;2022-10-16T07:28:53;6.03;;;2.42;;
31282;SDS011;17915;52.540;13.604;2022-10-16T07:31:19;1.70;;;1.60;;
31282;SDS011;17915;52.540;13.604;2022-10-16T07:33:45;1.23;;;1.20;;
31282;SDS011;17915;52.540;13.604;2022-10-16T07:36:12;3.60;;;1.40;;
31282;SDS011;17915;52.540;13.604;2022-10-16T07:38:38;1.73;;;1.60;;
31282;SDS011;17915;52.540;13.604;2022-10-16T07:41:05;6.30;;;1.83;;
31282;SDS011;17915;52.540;13.604;2022-10-16T07:43:32;2.60;;;1.70;;
31282;SDS011;17915;52.540;13.604;2022-10-16T07:45:58;1.95;;;1.85;;
31282;SDS011;17915;52.540;13.604;2022-10-16T07:48:24;2.23;;;1.90;;
31282;SDS011;17915;52.540;13.604;2022-10-16T07:50:51;4.72;;;1.83;;
31282;SDS011;17915;52.540;13.604;2022-10-16T07:53:17;5.40;;;1.83;;
31282;SDS011;17915;52.540;13.604;2022-10-16T07:55:42;2.50;;;2.30;;
31282;SDS011;17915;52.540;13.604;2022-10-16T07:58:07;1.90;;;1.80;;
31282;SDS011;17915;52.540;13.604;2022-10-16T08:00:33;4.10;;;2.10;;
31282;SDS011;17915;52.540;13.604;2022-10-16T08:02:59;1.40;;;1.30;;
31282;SDS011;17915;52.540;13.604;2022-10-16T08:05:28;5.88;;;1.98;;
31282;SDS011;17915;52.540;13.604;2022-10-16T08:07:55;5.88;;;1.85;;
31282;SDS011;17915;52.540;13.604;2022-10-16T08:10:21;1.98;;;1.85;;
31282;SDS011;17915;52.540;13.604;2022-10-16T08:12:48;6.82;;;2.33;;
31282;SDS011;17915;52.540;13.604;2022-10-16T08:15:14;7.43;;;1.80;;
31282;SDS011;17915;52.540;13.604;2022-10-16T08:17:39;6.50;;;2.20;;
31282;SDS011;17915;52.540;13.604;2022-10-16T08:20:04;2.13;;;2.03;;
31282;SDS011;17915;52.540;13.604;2022-10-16T08:22:30;4.00;;;1.90;;
31282;SDS011;17915;52.540;13.604;2022-10-16T08:24:56;3.97;;;2.10;;
31282;SDS011;17915;52.540;13.604;2022-10-16T08:27:21;2.07;;;1.70;;
31282;SDS011;17915;52.540;13.604;2022-10-16T08:29:48;2.03;;;1.80;;
31282;SDS011;17915;52.540;13.604;2022-10-16T08:32:13;1.50;;;1.25;;
31282;SDS011;17915;52.540;13.604;2022-10-16T08:34:39;3.10;;;1.70;;
31282;SDS011;17915;52.540;13.604;2022-10-16T08:37:04;3.80;;;1.97;;
31282;SDS011;17915;52.540;13.604;2022-10-16T08:39:29;6.67;;;2.20;;
31282;SDS011;17915;52.540;13.604;2022-10-16T08:42:04;2.80;;;1.53;;
31282;SDS011;17915;52.540;13.604;2022-10-16T08:47:17;1.48;;;1.42;;
31282;SDS011;17915;52.540;13.604;2022-10-16T08:50:00;47.92;;;9.38;;
31282;SDS011;17915;52.540;13.604;2022-10-16T08:52:32;17.80;;;5.90;;
31282;SDS011;17915;52.540;13.604;2022-10-16T08:55:00;2.60;;;2.13;;
31282;SDS011;17915;52.540;13.604;2022-10-16T08:59:52;25.83;;;6.18;;
31282;SDS011;17915;52.540;13.604;2022-10-16T09:15:36;7.70;;;4.05;;
31282;SDS011;17915;52.540;13.604;2022-10-16T09:18:13;2.58;;;1.75;;
31282;SDS011;17915;52.540;13.604;2022-10-16T09:20:53;1.70;;;1.60;;
31282;SDS011;17915;52.540;13.604;2022-10-16T09:23:35;2.40;;;1.90;;
31282;SDS011;17915;52.540;13.604;2022-10-16T09:26:01;3.80;;;1.55;;
31282;SDS011;17915;52.540;13.604;2022-10-16T09:28:28;1.33;;;1.23;;
31282;SDS011;17915;52.540;13.604;2022-10-16T09:30:53;1.20;;;1.10;;
31282;SDS011;17915;52.540;13.604;2022-10-16T09:33:20;1.42;;;1.42;;
31282;SDS011;17915;52.540;13.604;2022-10-16T09:35:51;2.17;;;1.23;;
31282;SDS011;17915;52.540;13.604;2022-10-16T09:38:31;4.13;;;2.28;;
31282;SDS011;17915;52.540;13.604;2022-10-16T09:43:51;6.22;;;2.03;;
31282;SDS011;17915;52.540;13.604;2022-10-16T09:46:22;1.67;;;1.40;;
31282;SDS011;17915;52.540;13.604;2022-10-16T09:48:51;1.13;;;1.02;;
31282;SDS011;17915;52.540;13.604;2022-10-16T09:51:29;1.30;;;1.27;;
31282;SDS011;17915;52.540;13.604;2022-10-16T09:53:57;3.35;;;2.65;;
31282;SDS011;17915;52.540;13.604;2022-10-16T09:56:25;1.73;;;1.63;;
31282;SDS011;17915;52.540;13.604;2022-10-16T09:58:57;4.22;;;1.30;;
31282;SDS011;17915;52.540;13.604;2022-10-16T10:01:38;2.55;;;2.25;;
31282;SDS011;17915;52.540;13.604;2022-10-16T10:04:04;2.45;;;1.60;;
31282;SDS011;17915;52.540;13.604;2022-10-16T10:06:52;1.77;;;1.67;;
31282;SDS011;17915;52.540;13.604;2022-10-16T10:09:21;1.52;;;1.20;;
31282;SDS011;17915;52.540;13.604;2022-10-16T10:16:52;1.50;;;1.40;;
31282;SDS011;17915;52.540;13.604;2022-10-16T10:19:27;2.13;;;1.50;;
31282;SDS011;17915;52.540;13.604;2022-10-16T10:21:53;2.90;;;1.40;;
31282;SDS011;17915;52.540;13.604;2022-10-16T10:24:18;1.40;;;1.30;;
31282;SDS011;17915;52.540;13.604;2022-10-16T10:40:30;1.55;;;1.13;;
31282;SDS011;17915;52.540;13.604;2022-10-16T10:43:09;1.38;;;1.17;;
31282;SDS011;17915;52.540;13.604;2022-10-16T10:45:43;2.17;;;0.95;;
31282;SDS011;17915;52.540;13.604;2022-10-16T10:48:17;1.23;;;1.05;;
31282;SDS011;17915;52.540;13.604;2022-10-16T10:51:01;3.22;;;1.10;;
31282;SDS011;17915;52.540;13.604;2022-10-16T10:53:44;5.47;;;1.23;;
31282;SDS011;17915;52.540;13.604;2022-10-16T11:05:40;1.13;;;1.02;;
31282;SDS011;17915;52.540;13.604;2022-10-16T11:08:19;10.38;;;1.70;;
31282;SDS011;17915;52.540;13.604;2022-10-16T11:10:52;1.30;;;1.20;;
31282;SDS011;17915;52.540;13.604;2022-10-16T11:15:57;0.80;;;0.77;;
31282;SDS011;17915;52.540;13.604;2022-10-16T11:18:27;1.42;;;1.30;;
31282;SDS011;17915;52.540;13.604;2022-10-16T11:21:08;1.27;;;1.02;;
31282;SDS011;17915;52.540;13.604;2022-10-16T11:24:22;5.35;;;1.48;;
31282;SDS011;17915;52.540;13.604;2022-10-16T11:26:35;1.30;;;1.30;;
31282;SDS011;17915;52.540;13.604;2022-10-16T11:29:04;4.22;;;3.22;;
31282;SDS011;17915;52.540;13.604;2022-10-16T11:31:48;1.27;;;1.27;;
31282;SDS011;17915;52.540;13.604;2022-10-16T11:34:22;1.77;;;1.05;;
31282;SDS011;17915;52.540;13.604;2022-10-16T11:40:51;1.48;;;1.15;;
31282;SDS011;17915;52.540;13.604;2022-10-16T11:56:36;0.85;;;0.80;;
31282;SDS011;17915;52.540;13.604;2022-10-16T12:00:05;0.98;;;0.98;;
31282;SDS011;17915;52.540;13.604;2022-10-16T12:04:53;1.70;;;1.05;;
31282;SDS011;17915;52.540;13.604;2022-10-16T12:07:32;3.10;;;1.08;;
31282;SDS011;17915;52.540;13.604;2022-10-16T12:10:21;0.80;;;0.80;;
31282;SDS011;17915;52.540;13.604;2022-10-16T12:12:48;2.03;;;1.00;;
31282;SDS011;17915;52.540;13.604;2022-10-16T12:15:33;1.08;;;1.08;;
31282;SDS011;17915;52.540;13.604;2022-10-16T12:17:59;0.90;;;0.90;;
31282;SDS011;17915;52.540;13.604;2022-10-16T12:20:26;1.85;;;1.75;;
31282;SDS011;17915;52.540;13.604;2022-10-16T12:22:56;4.50;;;1.70;;
31282;SDS011;17915;52.540;13.604;2022-10-16T12:28:35;2.78;;;1.20;;
31282;SDS011;17915;52.540;13.604;2022-10-16T12:30:53;2.35;;;1.08;;
31282;SDS011;17915;52.540;13.604;2022-10-16T12:33:34;0.90;;;0.70;;
31282;SDS011;17915;52.540;13.604;2022-10-16T12:36:02;1.15;;;1.10;;
31282;SDS011;17915;52.540;13.604;2022-10-16T12:38:45;1.30;;;1.00;;
31282;SDS011;17915;52.540;13.604;2022-10-16T12:41:12;6.47;;;1.13;;
31282;SDS011;17915;52.540;13.604;2022-10-16T12:43:53;0.90;;;0.90;;
31282;SDS011;17915;52.540;13.604;2022-10-16T12:48:44;0.70;;;0.70;;
31282;SDS011;17915;52.540;13.604;2022-10-16T12:53:37;2.22;;;0.90;;
31282;SDS011;17915;52.540;13.604;2022-10-16T12:56:24;1.87;;;1.53;;
31282;SDS011;17915;52.540;13.604;2022-10-16T12:59:01;0.95;;;0.95;;
31282;SDS011;17915;52.540;13.604;2022-10-16T13:01:53;2.47;;;0.77;;
31282;SDS011;17915;52.540;13.604;2022-10-16T13:10:13;1.27;;;1.17;;
31282;SDS011;17915;52.540;13.604;2022-10-16T13:12:53;0.85;;;0.85;;
31282;SDS011;17915;52.540;13.604;2022-10-16T13:28:40;0.93;;;0.50;;
31282;SDS011;17915;52.540;13.604;2022-10-16T13:31:10;0.97;;;0.80;;
31282;SDS011;17915;52.540;13.604;2022-10-16T13:33:41;1.42;;;0.77;;
31282;SDS011;17915;52.540;13.604;2022-10-16T13:36:23;0.70;;;0.70;;
31282;SDS011;17915;52.540;13.604;2022-10-16T13:39:00;4.05;;;0.60;;
31282;SDS011;17915;52.540;13.604;2022-10-16T13:41:31;2.45;;;1.30;;
31282;SDS011;17915;52.540;13.604;2022-10-16T13:43:56;3.20;;;0.67;;
31282;SDS011;17915;52.540;13.604;2022-10-16T13:46:23;5.00;;;0.87;;
31282;SDS011;17915;52.540;13.604;2022-10-16T13:49:22;1.00;;;0.70;;
31282;SDS011;17915;52.540;13.604;2022-10-16T13:51:41;0.68;;;0.68;;
31282;SDS011;17915;52.540;13.604;2022-10-16T13:54:19;0.98;;;0.98;;
31282;SDS011;17915;52.540;13.604;2022-10-16T13:56:45;2.43;;;0.87;;
31282;SDS011;17915;52.540;13.604;2022-10-16T13:59:26;1.13;;;0.80;;
31282;SDS011;17915;52.540;13.604;2022-10-16T14:01:57;0.70;;;0.70;;
31282;SDS011;17915;52.540;13.604;2022-10-16T14:04:24;1.30;;;1.17;;
31282;SDS011;17915;52.540;13.604;2022-10-16T14:06:50;4.13;;;1.23;;
31282;SDS011;17915;52.540;13.604;2022-10-16T14:11:48;1.10;;;1.10;;
31282;SDS011;17915;52.540;13.604;2022-10-16T14:14:16;1.70;;;0.98;;
31282;SDS011;17915;52.540;13.604;2022-10-16T14:16:42;0.80;;;0.80;;
31282;SDS011;17915;52.540;13.604;2022-10-16T14:19:18;0.80;;;0.80;;
31282;SDS011;17915;52.540;13.604;2022-10-16T14:24:12;0.70;;;0.70;;
31282;SDS011;17915;52.540;13.604;2022-10-16T14:26:44;10.90;;;1.65;;
31282;SDS011;17915;52.540;13.604;2022-10-16T14:29:14;0.82;;;0.82;;
31282;SDS011;17915;52.540;13.604;2022-10-16T14:31:40;3.50;;;1.08;;
31282;SDS011;17915;52.540;13.604;2022-10-16T14:34:29;1.45;;;1.33;;
31282;SDS011;17915;52.540;13.604;2022-10-16T14:39:49;1.35;;;1.00;;
31282;SDS011;17915;52.540;13.604;2022-10-16T14:44:42;0.93;;;0.93;;
31282;SDS011;17915;52.540;13.604;2022-10-16T14:47:09;1.20;;;1.20;;
31282;SDS011;17915;52.540;13.604;2022-10-16T14:49:39;1.20;;;1.20;;
31282;SDS011;17915;52.540;13.604;2022-10-16T14:52:12;5.13;;;1.33;;
31282;SDS011;17915;52.540;13.604;2022-10-16T14:54:38;1.00;;;1.00;;
31282;SDS011;17915;52.540;13.604;2022-10-16T14:57:03;4.17;;;1.10;;
31282;SDS011;17915;52.540;13.604;2022-10-16T14:59:39;2.80;;;1.20;;
31282;SDS011;17915;52.540;13.604;2022-10-16T15:02:16;6.22;;;1.02;;
31282;SDS011;17915;52.540;13.604;2022-10-16T15:04:45;2.03;;;1.15;;
31282;SDS011;17915;52.540;13.604;2022-10-16T15:07:11;1.73;;;1.52;;
31282;SDS011;17915;52.540;13.604;2022-10-16T15:09:36;1.20;;;1.20;;
31282;SDS011;17915;52.540;13.604;2022-10-16T15:12:02;4.00;;;1.50;;
31282;SDS011;17915;52.540;13.604;2022-10-16T15:14:27;2.78;;;1.40;;
31282;SDS011;17915;52.540;13.604;2022-10-16T15:16:53;1.40;;;1.30;;
31282;SDS011;17915;52.540;13.604;2022-10-16T15:19:18;3.03;;;1.50;;
31282;SDS011;17915;52.540;13.604;2022-10-16T15:21:44;1.20;;;1.20;;
31282;SDS011;17915;52.540;13.604;2022-10-16T15:24:11;1.37;;;1.27;;
31282;SDS011;17915;52.540;13.604;2022-10-16T15:26:37;1.75;;;1.30;;
31282;SDS011;17915;52.540;13.604;2022-10-16T15:29:03;2.27;;;1.67;;
31282;SDS011;17915;52.540;13.604;2022-10-16T15:31:28;0.90;;;0.90;;
31282;SDS011;17915;52.540;13.604;2022-10-16T15:33:54;2.83;;;1.23;;
31282;SDS011;17915;52.540;13.604;2022-10-16T15:36:26;4.63;;;1.02;;
31282;SDS011;17915;52.540;13.604;2022-10-16T15:38:52;4.93;;;1.60;;
31282;SDS011;17915;52.540;13.604;2022-10-16T15:41:18;2.10;;;1.50;;
31282;SDS011;17915;52.540;13.604;2022-10-16T15:43:44;1.13;;;1.03;;
31282;SDS011;17915;52.540;13.604;2022-10-16T15:46:11;4.47;;;2.03;;
31282;SDS011;17915;52.540;13.604;2022-10-16T15:48:39;2.33;;;2.13;;
31282;SDS011;17915;52.540;13.604;2022-10-16T15:51:05;1.63;;;1.37;;
31282;SDS011;17915;52.540;13.604;2022-10-16T15:53:31;1.30;;;1.20;;
31282;SDS011;17915;52.540;13.604;2022-10-16T15:55:56;2.30;;;1.20;;
31282;SDS011;17915;52.540;13.604;2022-10-16T15:58:22;1.13;;;1.13;;
31282;SDS011;17915;52.540;13.604;2022-10-16T16:00:54;1.30;;;1.20;;
31282;SDS011;17915;52.540;13.604;2022-10-16T16:03:25;7.57;;;2.72;;
31282;SDS011;17915;52.540;13.604;2022-10-16T16:05:51;1.40;;;1.30;;
31282;SDS011;17915;52.540;13.604;2022-10-16T16:08:16;6.47;;;2.60;;
31282;SDS011;17915;52.540;13.604;2022-10-16T16:10:42;1.77;;;1.60;;
31282;SDS011;17915;52.540;13.604;2022-10-16T16:13:07;2.00;;;1.90;;
31282;SDS011;17915;52.540;13.604;2022-10-16T16:15:33;4.00;;;1.97;;
31282;SDS011;17915;52.540;13.604;2022-10-16T16:17:58;2.77;;;2.13;;
31282;SDS011;17915;52.540;13.604;2022-10-16T16:22:50;6.63;;;1.88;;
31282;SDS011;17915;52.540;13.604;2022-10-16T16:25:16;1.93;;;1.83;;
31282;SDS011;17915;52.540;13.604;2022-10-16T16:27:41;2.77;;;2.57;;
31282;SDS011;17915;52.540;13.604;2022-10-16T16:30:07;3.47;;;1.93;;
31282;SDS011;17915;52.540;13.604;2022-10-16T16:32:33;1.80;;;1.70;;
31282;SDS011;17915;52.540;13.604;2022-10-16T16:34:59;2.22;;;2.00;;
31282;SDS011;17915;52.540;13.604;2022-10-16T16:37:25;2.07;;;1.97;;
31282;SDS011;17915;52.540;13.604;2022-10-16T16:39:50;2.77;;;2.57;;
31282;SDS011;17915;52.540;13.604;2022-10-16T16:42:16;1.97;;;1.77;;
31282;SDS011;17915;52.540;13.604;2022-10-16T16:44:41;2.83;;;1.70;;
31282;SDS011;17915;52.540;13.604;2022-10-16T16:47:06;5.10;;;2.03;;
31282;SDS011;17915;52.540;13.604;2022-10-16T16:49:32;3.40;;;2.07;;
31282;SDS011;17915;52.540;13.604;2022-10-16T16:51:57;3.63;;;1.90;;
31282;SDS011;17915;52.540;13.604;2022-10-16T16:54:23;1.80;;;1.70;;